Time;durP1;ratioP1;P1;durP2;ratioP2;P2;SDS_P1;SDS_P2;PMS_P1;PMS_P2;Temp;Humidity;BMP_temperature;BMP_pressure;BME280_temperature;BME280_humidity;BME280_pressure;Samples;Min_cycle;Max_cycle;Signal;HPM_P1;HPM_P2
2022/09/01 00:01:26;;;;;;;3.20;1.60;;;;;;;21.23;50.12;100209.59;5113820;27;20567;-66
2022/09/01 00:04:01;;;;;;;3.72;1.48;;;;;;;21.29;50.17;100217.81;5093561;27;20513;-64
2022/09/01 00:06:29;;;;;;;2.50;1.40;;;;;;;21.29;50.12;100222.44;5107978;27;20698;-65
2022/09/01 00:08:59;;;;;;;2.55;1.30;;;;;;;21.33;49.99;100218.22;5089980;27;20510;-64
2022/09/01 00:11:27;;;;;;;2.95;1.30;;;;;;;21.28;49.98;100215.28;5094410;27;20470;-65
2022/09/01 00:13:55;;;;;;;2.70;1.13;;;;;;;21.25;49.96;100221.16;5092262;27;20528;-65
2022/09/01 00:16:20;;;;;;;2.38;1.17;;;;;;;21.26;49.96;100234.59;5088687;27;20051;-66
2022/09/01 00:18:49;;;;;;;2.35;1.38;;;;;;;21.28;49.81;100245.31;5113737;27;20050;-66
2022/09/01 00:21:21;;;;;;;3.55;1.50;;;;;;;21.29;49.85;100252.44;5111333;27;20129;-66
2022/09/01 00:23:48;;;;;;;2.80;1.45;;;;;;;21.43;49.43;100278.72;5108845;27;20059;-65
2022/09/01 00:26:14;;;;;;;2.83;1.40;;;;;;;21.54;49.14;100294.50;5106719;27;20046;-64
2022/09/01 00:28:39;;;;;;;3.80;1.55;;;;;;;21.67;48.66;100305.47;5110873;27;20015;-66
2022/09/01 00:31:06;;;;;;;3.35;1.55;;;;;;;21.60;48.82;100316.34;5111233;27;20088;-66
2022/09/01 00:33:34;;;;;;;4.05;1.23;;;;;;;21.61;48.78;100326.22;5109572;27;20135;-65
2022/09/01 00:35:59;;;;;;;2.60;1.40;;;;;;;21.51;49.49;100314.03;5109073;27;20072;-65
2022/09/01 00:38:26;;;;;;;3.35;1.65;;;;;;;21.39;50.35;100310.19;5112684;27;20045;-66
2022/09/01 00:40:52;;;;;;;7.53;1.73;;;;;;;21.32;51.30;100309.34;5110342;27;20035;-64
2022/09/01 00:43:35;;;;;;;4.82;1.73;;;;;;;21.28;53.05;100313.53;5106811;27;20039;-67
2022/09/01 00:46:00;;;;;;;5.63;1.85;;;;;;;21.21;55.06;100312.63;5111138;27;20026;-67
2022/09/01 00:48:26;;;;;;;6.22;1.77;;;;;;;21.15;56.75;100310.72;5112274;27;20498;-67
2022/09/01 00:50:51;;;;;;;3.85;1.35;;;;;;;21.06;57.58;100309.22;5107779;27;20032;-65
2022/09/01 00:53:17;;;;;;;3.35;1.63;;;;;;;20.91;58.09;100303.00;5093303;27;20035;-66
2022/09/01 00:55:43;;;;;;;8.05;2.38;;;;;;;20.86;59.66;100317.22;5093746;27;20474;-67
2022/09/01 00:58:09;;;;;;;3.97;1.38;;;;;;;20.69;59.96;100317.75;5108738;27;20026;-67
2022/09/01 01:00:39;;;;;;;3.67;1.85;;;;;;;20.55;62.46;100321.44;5107963;27;20046;-67
2022/09/01 01:03:10;;;;;;;4.22;1.60;;;;;;;20.41;63.56;100312.31;5110429;27;20024;-67
2022/09/01 01:05:40;;;;;;;2.95;1.75;;;;;;;20.12;65.94;100313.34;5111248;27;20050;-67
2022/09/01 01:08:08;;;;;;;3.33;1.70;;;;;;;19.86;67.79;100302.16;5108322;27;20020;-65
2022/09/01 01:10:39;;;;;;;4.60;1.67;;;;;;;19.68;69.77;100300.94;5088785;28;20031;-65
2022/09/01 01:13:14;;;;;;;4.55;1.63;;;;;;;19.50;71.80;100303.22;5091728;27;20052;-67
2022/09/01 01:15:43;;;;;;;4.40;1.80;;;;;;;19.31;72.78;100295.72;5111831;27;20031;-67
2022/09/01 01:18:14;;;;;;;9.00;1.80;;;;;;;19.11;74.80;100295.41;5108255;27;20119;-67
2022/09/01 01:23:39;;;;;;;4.13;1.65;;;;;;;18.82;76.58;100290.00;5110791;27;20068;-65
2022/09/01 01:26:09;;;;;;;2.60;1.60;;;;;;;18.69;76.41;100308.00;5107910;27;20047;-66
2022/09/01 01:28:38;;;;;;;6.75;2.05;;;;;;;18.54;77.97;100294.41;5106676;27;20031;-65
2022/09/01 01:31:11;;;;;;;3.47;1.52;;;;;;;18.52;78.95;100295.63;5108734;27;20084;-65
2022/09/01 01:33:55;;;;;;;2.00;1.35;;;;;;;18.44;79.51;100285.69;5091879;28;20030;-66
2022/09/01 01:36:31;;;;;;;;;;;;;;;18.38;80.53;100289.13;5088173;28;20510;-65
2022/09/01 01:39:02;;;;;;;2.50;1.52;;;;;;;18.38;80.45;100286.41;5107589;27;19927;-65
2022/09/01 01:41:30;;;;;;;4.10;1.65;;;;;;;18.24;80.92;100281.78;5110231;27;20096;-67
2022/09/01 01:43:58;;;;;;;2.90;1.50;;;;;;;18.25;82.47;100296.22;5108017;27;20031;-68
2022/09/01 01:46:25;;;;;;;2.95;1.50;;;;;;;18.17;83.13;100297.13;5105788;27;20015;-65
2022/09/01 01:48:54;;;;;;;4.22;1.67;;;;;;;18.11;83.92;100287.00;5090744;27;20024;-65
2022/09/01 01:51:23;;;;;;;2.88;1.23;;;;;;;18.11;84.53;100292.44;5092400;28;20047;-66
2022/09/01 01:53:51;;;;;;;5.22;1.70;;;;;;;18.09;86.10;100280.94;5107760;27;20073;-65
2022/09/01 01:56:18;;;;;;;3.58;1.85;;;;;;;18.10;85.97;100283.44;5105147;27;20554;-66
2022/09/01 01:58:43;;;;;;;3.83;1.67;;;;;;;18.11;86.49;100287.00;5094751;27;20031;-67
2022/09/01 02:01:11;;;;;;;2.20;1.50;;;;;;;18.12;85.73;100285.97;5109698;27;20053;-66
2022/09/01 02:03:38;;;;;;;2.45;1.40;;;;;;;18.07;85.23;100277.53;5106981;28;20043;-66
2022/09/01 02:06:10;;;;;;;3.53;1.70;;;;;;;18.05;85.72;100279.59;5086404;28;20039;-66
2022/09/01 02:08:39;;;;;;;4.05;1.50;;;;;;;17.96;85.17;100261.72;5091092;28;20571;-66
2022/09/01 02:11:06;;;;;;;3.10;1.65;;;;;;;18.00;84.77;100268.47;5087656;28;20048;-66
2022/09/01 02:13:34;;;;;;;5.47;1.60;;;;;;;17.93;84.97;100272.94;5087547;28;20024;-68
2022/09/01 02:16:06;;;;;;;3.25;1.63;;;;;;;17.92;85.85;100271.22;5072624;28;20023;-67
2022/09/01 02:18:37;;;;;;;2.72;1.30;;;;;;;17.93;86.51;100284.59;5090081;28;20484;-67
2022/09/01 02:21:09;;;;;;;7.70;1.63;;;;;;;17.81;87.30;100277.09;5084595;28;20051;-66
2022/09/01 02:23:37;;;;;;;4.53;2.45;;;;;;;17.73;89.35;100277.13;5073060;28;20058;-65
2022/09/01 02:26:05;;;;;;;3.75;1.98;;;;;;;17.69;89.73;100273.97;5092966;28;20111;-68
2022/09/01 02:28:35;;;;;;;3.63;1.67;;;;;;;17.70;90.74;100282.94;5087158;28;20024;-68
2022/09/01 02:31:02;;;;;;;4.72;2.03;;;;;;;17.68;91.94;100288.56;5085234;28;20453;-68
2022/09/01 02:33:29;;;;;;;3.90;1.52;;;;;;;17.67;91.88;100277.91;5075332;28;20028;-68
2022/09/01 02:35:58;;;;;;;7.85;2.03;;;;;;;17.69;92.02;100294.81;5088005;28;20035;-66
2022/09/01 02:38:28;;;;;;;4.68;2.28;;;;;;;17.69;91.42;100300.25;5085472;28;20016;-66
2022/09/01 02:40:55;;;;;;;7.70;1.67;;;;;;;17.63;91.30;100299.09;5067613;28;20518;-66
2022/09/01 02:43:21;;;;;;;5.68;1.85;;;;;;;17.58;91.24;100289.81;5092861;28;20028;-67
2022/09/01 02:45:56;;;;;;;5.90;2.40;;;;;;;17.61;91.51;100297.59;5088864;28;20403;-66
2022/09/01 02:48:34;;;;;;;4.13;1.95;;;;;;;17.64;90.24;100299.94;5084901;28;20035;-65
2022/09/01 02:51:01;;;;;;;3.58;1.70;;;;;;;17.58;91.38;100289.81;5085884;28;20425;-66
2022/09/01 02:53:28;;;;;;;3.33;1.95;;;;;;;17.49;91.50;100280.91;5091592;28;20028;-66
2022/09/01 02:55:57;;;;;;;4.78;2.05;;;;;;;17.54;91.93;100297.47;5069595;28;20630;-65
2022/09/01 02:58:28;;;;;;;6.60;1.70;;;;;;;17.51;92.20;100295.09;5084767;28;20023;-68
2022/09/01 03:00:56;;;;;;;5.50;2.17;;;;;;;17.50;92.50;100293.41;5085369;28;20047;-68
2022/09/01 03:03:22;;;;;;;4.15;1.67;;;;;;;17.49;91.57;100294.47;5084707;28;20089;-68
2022/09/01 03:05:55;;;;;;;7.82;2.17;;;;;;;17.49;92.38;100297.16;5068078;28;20036;-67
2022/09/01 03:08:23;;;;;;;4.25;1.73;;;;;;;17.49;91.90;100296.31;5067344;28;20036;-68
2022/09/01 03:10:50;;;;;;;4.35;1.80;;;;;;;17.50;92.77;100290.72;5087336;28;20050;-68
2022/09/01 03:13:19;;;;;;;5.25;1.75;;;;;;;17.51;92.23;100299.69;5092905;28;20043;-68
2022/09/01 03:15:45;;;;;;;4.53;1.90;;;;;;;17.48;92.21;100290.03;5091013;28;20101;-67
2022/09/01 03:18:12;;;;;;;6.47;2.28;;;;;;;17.50;91.14;100298.84;5088296;28;20024;-68
2022/09/01 03:20:45;;;;;;;3.17;1.88;;;;;;;17.48;89.32;100295.47;5091323;28;20471;-67
2022/09/01 03:23:13;;;;;;;8.38;1.90;;;;;;;17.50;90.88;100296.13;5072995;28;20056;-67
2022/09/01 03:25:44;;;;;;;6.95;1.60;;;;;;;17.47;88.09;100304.63;5090153;28;20055;-68
2022/09/01 03:28:11;;;;;;;5.70;1.30;;;;;;;17.42;86.29;100292.59;5085500;28;20031;-66
2022/09/01 03:30:39;;;;;;;6.20;1.67;;;;;;;17.43;86.52;100281.59;5089249;28;20404;-66
2022/09/01 03:33:06;;;;;;;4.22;1.48;;;;;;;17.40;86.39;100283.78;5091484;28;20019;-65
2022/09/01 03:35:32;;;;;;;3.78;1.63;;;;;;;17.25;86.45;100270.16;5091481;28;20032;-68
2022/09/01 03:37:59;;;;;;;3.50;1.50;;;;;;;17.30;87.42;100275.91;5088945;28;20032;-69
2022/09/01 03:40:31;;;;;;;4.88;1.60;;;;;;;17.24;88.51;100275.75;5070530;28;20134;-66
2022/09/01 03:43:00;;;;;;;2.83;1.55;;;;;;;17.12;87.41;100272.59;5086121;28;20036;-64
2022/09/01 03:45:26;;;;;;;2.55;1.45;;;;;;;17.09;87.90;100275.66;5068807;28;20059;-68
2022/09/01 03:47:53;;;;;;;5.28;1.60;;;;;;;17.02;87.85;100273.81;5086908;28;20659;-67
2022/09/01 03:50:21;;;;;;;2.75;1.30;;;;;;;16.97;89.08;100271.69;5068009;28;20034;-68
2022/09/01 03:52:55;;;;;;;3.58;1.50;;;;;;;16.91;91.67;100271.53;5086168;28;20115;-67
2022/09/01 03:55:25;;;;;;;4.45;1.48;;;;;;;16.89;91.42;100271.69;5086507;28;20517;-68
2022/09/01 03:57:59;;;;;;;2.42;1.40;;;;;;;16.95;92.55;100275.56;5086048;28;20035;-67
2022/09/01 04:00:28;;;;;;;3.95;1.52;;;;;;;16.88;92.96;100259.19;5067492;28;20024;-67
2022/09/01 04:02:58;;;;;;;9.05;2.13;;;;;;;16.81;93.97;100254.63;5086377;28;20036;-66
2022/09/01 04:05:27;;;;;;;9.73;1.70;;;;;;;16.79;94.20;100253.97;5086177;28;20031;-66
2022/09/01 04:07:55;;;;;;;6.43;1.95;;;;;;;16.83;94.46;100260.75;5066686;28;20475;-66
2022/09/01 04:10:21;;;;;;;8.88;1.45;;;;;;;16.85;94.35;100262.25;5068040;28;20028;-67
2022/09/01 04:12:47;;;;;;;2.92;1.45;;;;;;;16.83;94.72;100258.03;5066830;28;20055;-66
2022/09/01 04:15:15;;;;;;;6.43;1.77;;;;;;;16.86;96.55;100272.03;5085679;28;20036;-67
2022/09/01 04:18:19;;;;;;;4.72;1.80;;;;;;;16.85;95.88;100270.38;5085796;28;20028;-67
2022/09/01 04:20:47;;;;;;;6.00;1.80;;;;;;;16.87;96.37;100273.75;5083353;28;20393;-66
2022/09/01 04:23:19;;;;;;;2.97;1.70;;;;;;;16.96;95.96;100269.16;5084682;28;20092;-66
2022/09/01 04:25:49;;;;;;;4.70;1.73;;;;;;;16.89;96.63;100260.88;5085603;28;20797;-67
2022/09/01 04:28:21;;;;;;;4.95;2.30;;;;;;;16.90;95.68;100267.13;5086307;28;20020;-68
2022/09/01 04:30:54;;;;;;;6.25;2.17;;;;;;;16.86;95.62;100263.09;5083724;28;20579;-65
2022/09/01 04:33:21;;;;;;;4.90;1.80;;;;;;;16.92;96.51;100263.22;5085136;28;20032;-67
2022/09/01 04:35:48;;;;;;;3.15;1.50;;;;;;;16.93;96.09;100269.50;5084907;28;20036;-68
2022/09/01 04:38:14;;;;;;;3.40;1.63;;;;;;;16.92;95.76;100267.78;5067240;28;20020;-66
2022/09/01 04:40:41;;;;;;;5.22;1.85;;;;;;;16.91;95.90;100264.25;5067102;28;20043;-67
2022/09/01 04:43:07;;;;;;;4.18;1.77;;;;;;;16.88;95.76;100255.63;5066143;28;20047;-67
2022/09/01 04:45:36;;;;;;;3.35;1.85;;;;;;;16.77;96.45;100246.00;5091608;28;20069;-68
2022/09/01 04:48:04;;;;;;;3.70;1.88;;;;;;;16.77;95.63;100261.44;5085570;28;20071;-68
2022/09/01 04:50:31;;;;;;;4.72;1.88;;;;;;;16.74;95.71;100261.78;5085444;28;20020;-67
2022/09/01 04:53:03;;;;;;;3.85;2.00;;;;;;;16.75;96.29;100261.59;5085627;28;20059;-67
2022/09/01 04:55:29;;;;;;;3.97;1.52;;;;;;;16.72;95.97;100255.69;5085609;28;20024;-67
2022/09/01 04:57:56;;;;;;;3.08;1.70;;;;;;;16.68;96.54;100259.78;5085797;28;20483;-66
2022/09/01 05:00:24;;;;;;;4.25;1.73;;;;;;;16.74;95.63;100259.94;5088028;28;20036;-66
2022/09/01 05:03:02;;;;;;;4.28;2.00;;;;;;;16.71;95.23;100254.88;5085711;28;20035;-66
2022/09/01 05:05:28;;;;;;;4.38;1.63;;;;;;;16.68;94.70;100251.66;5085840;28;20032;-66
2022/09/01 05:07:54;;;;;;;5.38;1.60;;;;;;;16.61;93.71;100242.53;5085475;28;20086;-66
2022/09/01 05:10:21;;;;;;;7.82;1.80;;;;;;;16.64;94.10;100240.31;5085119;28;20058;-66
2022/09/01 05:12:47;;;;;;;5.30;1.95;;;;;;;16.67;93.73;100239.13;5085203;28;20047;-66
2022/09/01 05:15:14;;;;;;;6.13;1.83;;;;;;;16.64;92.54;100240.31;5084997;28;20028;-66
2022/09/01 05:17:40;;;;;;;4.75;1.70;;;;;;;16.66;92.32;100243.69;5085397;28;20024;-67
2022/09/01 05:20:08;;;;;;;5.68;1.90;;;;;;;16.60;91.66;100228.16;5085254;28;20039;-65
2022/09/01 05:22:34;;;;;;;3.50;1.50;;;;;;;16.62;91.17;100225.25;5085323;28;20067;-65
2022/09/01 05:25:11;;;;;;;2.33;1.55;;;;;;;16.72;91.30;100239.44;5084121;28;20032;-64
2022/09/01 05:27:39;;;;;;;3.42;1.75;;;;;;;16.76;90.02;100232.63;5085380;28;20055;-64
2022/09/01 05:30:07;;;;;;;2.80;1.35;;;;;;;16.77;90.27;100237.06;5084799;28;20021;-66
2022/09/01 05:32:35;;;;;;;3.65;1.60;;;;;;;16.80;89.94;100236.72;5085337;28;20028;-66
2022/09/01 05:35:05;;;;;;;3.30;1.30;;;;;;;16.82;89.20;100242.78;5083864;28;20457;-66
2022/09/01 05:37:31;;;;;;;3.92;1.63;;;;;;;16.70;88.18;100219.81;5066443;28;20031;-66
2022/09/01 05:39:57;;;;;;;4.32;1.75;;;;;;;16.81;88.81;100252.78;5084832;28;20546;-65
2022/09/01 05:42:23;;;;;;;1.67;1.27;;;;;;;16.72;87.71;100243.00;5084577;28;20085;-66
2022/09/01 05:44:49;;;;;;;3.15;1.40;;;;;;;16.82;88.00;100257.19;5084672;28;20118;-66
2022/09/01 05:47:15;;;;;;;3.28;1.60;;;;;;;16.83;88.86;100255.31;5084404;28;20777;-65
2022/09/01 05:49:40;;;;;;;3.67;1.48;;;;;;;16.80;88.33;100253.78;5085949;28;20085;-65
2022/09/01 05:52:08;;;;;;;3.15;1.33;;;;;;;16.85;89.29;100264.09;5066182;28;20072;-65
2022/09/01 05:54:34;;;;;;;4.50;1.60;;;;;;;16.86;87.21;100263.91;5068638;28;20570;-68
2022/09/01 05:57:02;;;;;;;2.00;1.40;;;;;;;16.88;85.01;100270.03;5084261;28;20098;-66
2022/09/01 05:59:30;;;;;;;4.70;1.48;;;;;;;16.84;84.33;100252.44;5084364;28;20016;-65
2022/09/01 06:01:55;;;;;;;4.63;1.70;;;;;;;16.90;83.54;100267.97;5066252;28;20035;-66
2022/09/01 06:04:24;;;;;;;4.13;1.45;;;;;;;16.93;83.52;100275.75;5084516;28;20032;-66
2022/09/01 06:06:50;;;;;;;1.92;1.38;;;;;;;16.95;84.41;100278.28;5084579;28;20039;-65
2022/09/01 06:09:17;;;;;;;1.90;1.25;;;;;;;17.05;83.58;100290.59;5069033;28;20475;-65
2022/09/01 06:11:45;;;;;;;5.38;1.60;;;;;;;17.00;83.73;100279.47;5067596;28;20093;-66
2022/09/01 06:14:12;;;;;;;2.72;1.45;;;;;;;17.10;84.06;100298.19;5087901;28;20036;-67
2022/09/01 06:16:38;;;;;;;4.07;1.58;;;;;;;17.13;85.12;100297.84;5087849;28;20107;-66
2022/09/01 06:19:04;;;;;;;1.63;1.27;;;;;;;17.16;84.25;100301.03;5085151;28;20157;-66
2022/09/01 06:21:30;;;;;;;3.42;1.55;;;;;;;17.12;83.98;100296.16;5083882;28;20043;-66
2022/09/01 06:23:57;;;;;;;4.05;1.30;;;;;;;17.20;85.61;100306.97;5083957;28;20056;-66
2022/09/01 06:26:32;;;;;;;2.53;1.45;;;;;;;17.23;86.06;100304.75;5083376;28;20038;-66
2022/09/01 06:29:08;;;;;;;1.77;1.30;;;;;;;17.24;84.72;100302.84;5086239;28;20023;-65
2022/09/01 06:31:38;;;;;;;4.25;1.65;;;;;;;17.25;84.49;100310.81;5067082;28;20032;-66
2022/09/01 06:34:07;;;;;;;4.15;1.45;;;;;;;17.26;85.32;100308.97;5084031;28;20019;-65
2022/09/01 06:36:35;;;;;;;6.15;1.80;;;;;;;17.25;86.03;100299.97;5084569;28;20173;-66
2022/09/01 06:39:03;;;;;;;2.78;1.65;;;;;;;17.28;86.93;100301.50;5065834;28;20112;-65
2022/09/01 06:41:30;;;;;;;3.38;1.70;;;;;;;17.30;87.54;100308.44;5084125;28;20032;-65
2022/09/01 06:43:56;;;;;;;4.72;1.42;;;;;;;17.33;87.70;100304.50;5065893;28;20028;-65
2022/09/01 06:46:24;;;;;;;4.57;1.52;;;;;;;17.37;88.96;100297.69;5066960;28;20089;-65
2022/09/01 06:48:50;;;;;;;3.45;1.50;;;;;;;17.35;89.26;100295.16;5088478;28;20529;-65
2022/09/01 06:51:19;;;;;;;4.18;1.60;;;;;;;17.35;90.31;100289.75;5094480;28;20026;-65
2022/09/01 06:53:55;;;;;;;3.53;1.85;;;;;;;17.37;90.31;100293.13;5087415;28;20044;-65
2022/09/01 06:56:21;;;;;;;3.00;1.35;;;;;;;17.36;90.25;100282.47;5087298;28;20024;-66
2022/09/01 06:58:47;;;;;;;5.00;2.50;;;;;;;17.35;91.05;100283.50;5087222;28;20653;-65
2022/09/01 07:01:18;;;;;;;3.25;1.70;;;;;;;17.34;91.22;100284.50;5088362;28;20169;-65
2022/09/01 07:03:46;;;;;;;2.95;1.83;;;;;;;17.35;91.98;100289.75;5088489;28;20479;-64
2022/09/01 07:06:13;;;;;;;4.03;1.90;;;;;;;17.33;91.34;100285.53;5087173;28;20035;-65
2022/09/01 07:08:48;;;;;;;10.68;2.33;;;;;;;17.30;90.43;100289.47;5087744;28;20780;-64
2022/09/01 07:11:24;;;;;;;;;;;;;;;17.33;91.38;100293.66;5068932;28;20036;-64
2022/09/01 07:13:54;;;;;;;4.32;1.90;;;;;;;17.34;91.00;100293.50;5087423;28;19916;-64
2022/09/01 07:16:22;;;;;;;5.93;2.58;;;;;;;17.38;91.15;100304.84;5086841;28;20122;-64
2022/09/01 07:18:49;;;;;;;6.18;2.00;;;;;;;17.40;91.33;100300.06;5089452;28;20379;-65
2022/09/01 07:21:15;;;;;;;4.97;2.10;;;;;;;17.45;91.57;100300.41;5085887;28;20031;-63
2022/09/01 07:23:42;;;;;;;2.80;1.70;;;;;;;17.49;91.39;100299.88;5086847;28;20071;-64
2022/09/01 07:26:09;;;;;;;2.42;1.70;;;;;;;17.48;91.04;100289.22;5087327;28;20114;-65
2022/09/01 07:28:35;;;;;;;4.43;2.05;;;;;;;17.49;91.37;100291.75;5068837;28;20379;-65
2022/09/01 07:31:03;;;;;;;3.25;1.65;;;;;;;17.54;91.75;100291.22;5087541;28;21729;-65
2022/09/01 07:33:30;;;;;;;4.47;1.92;;;;;;;17.61;92.49;100292.16;5085091;28;20032;-66
2022/09/01 07:35:56;;;;;;;4.28;1.70;;;;;;;17.70;92.17;100299.19;5068669;28;20043;-66
2022/09/01 07:38:23;;;;;;;3.58;1.90;;;;;;;17.65;91.81;100283.50;5068037;28;20032;-66
2022/09/01 07:40:52;;;;;;;4.32;2.00;;;;;;;17.66;91.53;100287.88;5087058;28;20036;-67
2022/09/01 07:43:24;;;;;;;2.58;1.80;;;;;;;17.75;91.15;100304.94;5086394;28;20104;-66
2022/09/01 07:45:54;;;;;;;4.45;1.77;;;;;;;17.77;90.94;100298.31;5087008;28;20036;-65
2022/09/01 07:48:22;;;;;;;2.70;1.98;;;;;;;17.79;90.90;100298.97;5086721;28;20020;-66
2022/09/01 07:50:54;;;;;;;3.92;2.33;;;;;;;17.72;89.78;100286.31;5086772;28;20668;-65
2022/09/01 07:53:24;;;;;;;5.70;1.80;;;;;;;17.79;89.34;100311.69;5086301;28;20028;-66
2022/09/01 07:55:51;;;;;;;3.40;1.88;;;;;;;17.77;89.72;100305.63;5068539;28;20035;-65
2022/09/01 07:58:22;;;;;;;2.95;2.05;;;;;;;17.81;89.93;100317.78;5065438;28;20028;-65
2022/09/01 08:00:48;;;;;;;3.22;1.80;;;;;;;17.81;88.93;100306.94;5064453;28;20662;-65
2022/09/01 08:03:23;;;;;;;2.80;1.95;;;;;;;17.83;88.95;100310.28;5066404;28;20020;-65
2022/09/01 08:05:52;;;;;;;3.88;1.80;;;;;;;17.82;88.14;100301.34;5068317;28;20051;-67
2022/09/01 08:08:19;;;;;;;4.15;1.85;;;;;;;17.89;88.21;100315.84;5086186;28;20063;-66
2022/09/01 08:10:47;;;;;;;3.42;2.28;;;;;;;17.83;88.91;100304.88;5086601;28;20085;-66
2022/09/01 08:13:13;;;;;;;6.78;3.80;;;;;;;17.92;87.84;100315.50;5085691;28;20390;-64
2022/09/01 08:15:39;;;;;;;6.63;3.30;;;;;;;17.90;87.43;100316.72;5068408;28;20023;-66
2022/09/01 08:18:06;;;;;;;4.47;2.53;;;;;;;17.87;86.97;100304.31;5085696;28;20031;-65
2022/09/01 08:20:36;;;;;;;5.43;3.20;;;;;;;17.98;86.48;100322.91;5084417;28;20043;-66
2022/09/01 08:23:03;;;;;;;14.60;2.92;;;;;;;18.00;86.37;100315.41;5086806;28;20444;-66
2022/09/01 08:25:29;;;;;;;7.40;2.50;;;;;;;18.03;86.67;100319.66;5066993;28;20028;-66
2022/09/01 08:27:55;;;;;;;4.43;2.10;;;;;;;18.06;86.35;100313.88;5081109;28;20440;-65
2022/09/01 08:30:21;;;;;;;5.93;2.10;;;;;;;18.07;85.88;100312.84;5085260;28;20119;-65
2022/09/01 08:32:46;;;;;;;2.35;1.70;;;;;;;18.15;85.74;100315.47;5085392;28;20301;-65
2022/09/01 08:35:15;;;;;;;4.10;1.85;;;;;;;18.09;85.38;100310.78;5066933;28;20036;-66
2022/09/01 08:37:41;;;;;;;6.03;1.70;;;;;;;18.15;84.03;100323.59;5085459;28;20123;-66
2022/09/01 08:40:10;;;;;;;5.28;1.80;;;;;;;18.17;83.06;100324.28;5085525;28;20036;-64
2022/09/01 08:43:17;;;;;;;5.38;2.38;;;;;;;18.20;82.73;100318.47;5084949;28;20053;-66
2022/09/01 08:45:52;;;;;;;5.63;2.80;;;;;;;18.24;83.00;100325.22;5066657;28;20040;-66
2022/09/01 08:48:20;;;;;;;6.97;2.65;;;;;;;18.31;81.75;100322.63;5083868;28;20123;-65
2022/09/01 08:50:54;;;;;;;3.75;2.67;;;;;;;18.34;81.13;100325.81;5085618;28;20107;-64
2022/09/01 08:53:35;;;;;;;5.28;2.72;;;;;;;18.34;80.12;100325.00;5066737;28;20092;-64
2022/09/01 08:56:01;;;;;;;10.05;3.08;;;;;;;18.34;80.27;100323.09;5069258;28;20038;-65
2022/09/01 08:58:30;;;;;;;3.35;2.22;;;;;;;18.38;81.18;100324.44;5085743;28;20051;-64
2022/09/01 09:01:03;;;;;;;3.05;1.83;;;;;;;18.44;81.15;100318.28;5085184;28;20027;-64
2022/09/01 09:04:01;;;;;;;3.75;1.83;;;;;;;18.47;81.46;100334.19;5087343;28;20032;-65
2022/09/01 09:06:27;;;;;;;3.20;1.30;;;;;;;18.50;81.83;100312.09;5084016;28;20038;-64
2022/09/01 09:09:06;;;;;;;3.92;1.70;;;;;;;18.54;81.60;100307.16;5084789;28;20464;-63
2022/09/01 09:11:50;;;;;;;3.13;1.63;;;;;;;18.58;82.84;100312.03;5085071;28;20032;-66
2022/09/01 09:14:18;;;;;;;2.83;1.33;;;;;;;18.63;82.39;100306.88;5084258;28;20031;-66
2022/09/01 09:16:48;;;;;;;2.50;1.48;;;;;;;18.65;81.01;100302.09;5066612;28;20051;-65
2022/09/01 09:19:40;;;;;;;4.22;1.50;;;;;;;18.72;81.65;100308.47;5084580;28;20340;-64
2022/09/01 09:22:09;;;;;;;2.78;1.52;;;;;;;18.74;80.26;100311.00;5084140;28;20047;-64
2022/09/01 09:24:49;;;;;;;2.47;1.52;;;;;;;18.79;80.37;100317.56;5084634;28;20047;-64
2022/09/01 09:27:32;;;;;;;2.90;1.45;;;;;;;18.85;79.38;100319.53;5084584;28;20479;-64
2022/09/01 09:30:00;;;;;;;2.33;1.38;;;;;;;18.86;77.58;100315.78;5086613;28;20102;-64
2022/09/01 09:32:50;;;;;;;4.35;1.60;;;;;;;18.89;76.65;100309.16;5085283;28;20028;-64
2022/09/01 09:35:23;;;;;;;2.20;1.60;;;;;;;18.93;75.45;100311.28;5084237;28;20475;-64
2022/09/01 09:37:49;;;;;;;2.33;1.40;;;;;;;19.03;75.32;100306.41;5084061;28;20028;-64
2022/09/01 09:40:25;;;;;;;4.85;1.40;;;;;;;19.11;73.69;100314.44;5067423;28;20028;-64
2022/09/01 09:42:53;;;;;;;2.58;1.80;;;;;;;19.13;71.74;100308.84;5084567;28;20032;-64
2022/09/01 09:45:26;;;;;;;4.38;1.60;;;;;;;19.09;70.90;100300.19;5065968;28;20040;-63
2022/09/01 09:47:55;;;;;;;3.25;1.60;;;;;;;19.20;71.17;100307.88;5082872;28;20478;-65
2022/09/01 09:50:23;;;;;;;2.65;1.50;;;;;;;19.31;71.64;100309.31;5065450;28;20031;-66
2022/09/01 09:52:50;;;;;;;5.25;1.83;;;;;;;19.35;69.78;100300.56;5084389;28;20487;-66
2022/09/01 09:55:28;;;;;;;4.38;1.77;;;;;;;19.41;70.21;100307.94;5066655;28;20822;-66
2022/09/01 09:58:07;;;;;;;1.70;1.38;;;;;;;19.39;69.44;100304.59;5084776;28;20774;-64
2022/09/01 10:00:34;;;;;;;3.15;1.65;;;;;;;19.51;68.97;100316.66;5083832;28;20487;-63
2022/09/01 10:03:11;;;;;;;5.95;1.73;;;;;;;19.55;68.59;100308.97;5084379;28;20020;-65
2022/09/01 10:05:47;;;;;;;2.65;1.60;;;;;;;19.40;68.66;100291.81;5084043;28;20161;-65
2022/09/01 10:08:38;;;;;;;2.13;1.38;;;;;;;19.53;69.76;100314.59;5084170;28;20032;-65
2022/09/01 10:11:04;;;;;;;2.33;1.30;;;;;;;19.34;67.78;100274.41;5083495;28;20035;-65
2022/09/01 10:13:34;;;;;;;3.15;1.80;;;;;;;19.54;68.23;100305.38;5084051;28;20036;-65
2022/09/01 10:16:03;;;;;;;2.00;1.63;;;;;;;19.48;68.75;100300.69;5083862;28;20085;-65
2022/09/01 10:18:33;;;;;;;3.17;1.63;;;;;;;19.43;68.80;100292.28;5083748;28;20089;-66
2022/09/01 10:21:07;;;;;;;3.22;1.75;;;;;;;19.45;69.20;100297.53;5065094;28;20087;-65
2022/09/01 10:23:35;;;;;;;5.88;1.85;;;;;;;19.49;68.55;100296.97;5082373;28;20206;-65
2022/09/01 10:26:08;;;;;;;2.45;1.20;;;;;;;19.50;68.88;100297.78;5084538;28;20055;-65
2022/09/01 10:28:40;;;;;;;1.95;1.45;;;;;;;19.50;69.45;100293.19;5064670;28;20653;-65
2022/09/01 10:31:07;;;;;;;5.03;1.70;;;;;;;19.51;69.82;100300.31;5065184;28;20027;-64
2022/09/01 10:33:32;;;;;;;3.63;1.73;;;;;;;19.54;70.18;100296.41;5066008;28;20138;-65
2022/09/01 10:35:58;;;;;;;2.42;1.80;;;;;;;19.58;69.89;100300.41;5084208;28;20030;-66
2022/09/01 10:38:29;;;;;;;3.40;1.50;;;;;;;19.59;69.29;100291.19;5087036;28;20032;-66
2022/09/01 10:41:06;;;;;;;3.80;1.58;;;;;;;19.62;69.06;100291.66;5083078;28;20028;-64
2022/09/01 10:43:40;;;;;;;5.88;1.42;;;;;;;19.63;70.19;100293.34;5083488;28;20475;-65
2022/09/01 10:46:21;;;;;;;5.93;1.90;;;;;;;19.67;70.59;100299.25;5083388;28;20032;-66
2022/09/01 10:48:49;;;;;;;3.92;1.38;;;;;;;19.68;69.67;100300.94;5083762;28;20044;-65
2022/09/01 10:51:14;;;;;;;5.68;1.35;;;;;;;19.68;69.72;100298.22;5083049;28;20034;-65
2022/09/01 10:53:52;;;;;;;3.65;1.40;;;;;;;19.72;69.97;100300.34;5083798;28;20020;-65
2022/09/01 10:56:35;;;;;;;3.03;1.52;;;;;;;19.76;70.50;100298.06;5082670;28;20627;-65
2022/09/01 10:59:10;;;;;;;2.75;1.67;;;;;;;19.81;69.99;100304.66;5085296;28;20431;-65
2022/09/01 11:01:42;;;;;;;2.50;1.38;;;;;;;19.88;69.21;100310.13;5065233;28;20024;-64
2022/09/01 11:04:11;;;;;;;3.47;1.50;;;;;;;19.93;69.98;100304.97;5064517;28;20089;-64
2022/09/01 11:06:57;;;;;;;3.58;1.50;;;;;;;19.98;69.67;100297.91;5083192;28;20036;-65
2022/09/01 11:09:39;;;;;;;3.33;1.50;;;;;;;19.98;70.78;100287.00;5083239;28;20576;-65
2022/09/01 11:12:21;;;;;;;1.85;1.40;;;;;;;20.11;70.41;100297.16;5083203;28;20542;-65
2022/09/01 11:15:02;;;;;;;2.58;1.70;;;;;;;20.19;69.44;100299.78;5083519;28;20472;-65
2022/09/01 11:17:53;;;;;;;1.80;1.02;;;;;;;20.26;68.98;100302.56;5081510;28;20141;-64
2022/09/01 11:20:21;;;;;;;2.05;1.30;;;;;;;20.37;69.49;100293.88;5081778;28;20104;-64
2022/09/01 11:23:12;;;;;;;3.83;1.45;;;;;;;20.33;67.37;100295.28;5083118;28;20109;-65
2022/09/01 11:25:47;;;;;;;3.03;1.35;;;;;;;20.41;66.35;100292.41;5073440;28;20471;-64
2022/09/01 11:28:15;;;;;;;2.90;1.10;;;;;;;20.46;65.91;100289.91;5066261;28;20114;-65
2022/09/01 11:30:57;;;;;;;3.90;1.20;;;;;;;20.49;65.69;100293.09;5067324;28;20047;-65
2022/09/01 11:33:46;;;;;;;2.45;1.30;;;;;;;20.58;64.96;100289.19;5084493;28;20292;-64
2022/09/01 11:36:34;;;;;;;4.15;1.23;;;;;;;20.64;63.18;100290.28;5068428;28;20106;-65
2022/09/01 11:39:28;;;;;;;2.60;1.50;;;;;;;20.68;61.66;100286.94;5088631;28;20031;-65
2022/09/01 11:42:21;;;;;;;3.70;1.67;;;;;;;20.77;61.79;100293.06;5084381;28;20461;-64
2022/09/01 11:44:56;;;;;;;2.53;1.33;;;;;;;20.80;60.53;100288.03;5086148;28;20063;-64